createdAt,value
2017-07-08T00:01:17.658Z,17.07
2017-07-08T00:03:46.140Z,17.67
2017-07-08T00:06:15.358Z,19.60
2017-07-08T00:08:44.080Z,18.73
2017-07-08T00:11:13.218Z,20.10
2017-07-08T00:14:45.331Z,21.93
2017-07-08T00:17:13.836Z,20.83
2017-07-08T00:19:42.404Z,23.07
2017-07-08T00:22:10.946Z,24.73
2017-07-08T00:24:39.591Z,24.77
2017-07-08T00:27:08.655Z,24.07
2017-07-08T00:29:37.459Z,23.70
2017-07-08T00:32:06.027Z,26.03
2017-07-08T00:34:34.639Z,26.57
2017-07-08T00:37:03.154Z,26.87
2017-07-08T00:39:31.641Z,29.20
2017-07-08T00:42:00.097Z,28.73
2017-07-08T00:44:28.765Z,26.10
2017-07-08T00:46:57.253Z,29.43
2017-07-08T00:49:26.214Z,27.93
2017-07-08T00:51:54.722Z,25.50
2017-07-08T00:54:23.208Z,27.60
2017-07-08T00:56:51.671Z,27.27
2017-07-08T00:59:20.472Z,28.23
2017-07-08T01:01:48.977Z,27.00
2017-07-08T01:04:17.437Z,25.33
2017-07-08T01:06:46.441Z,26.17
2017-07-08T01:09:15.138Z,24.73
2017-07-08T01:11:43.671Z,24.03
2017-07-08T01:14:12.935Z,24.70
2017-07-08T01:16:41.587Z,26.33
2017-07-08T01:19:10.086Z,24.87
2017-07-08T01:21:38.727Z,24.43
2017-07-08T01:24:07.360Z,25.40
2017-07-08T01:26:35.920Z,23.47
2017-07-08T01:29:04.495Z,25.67
2017-07-08T01:31:34.445Z,22.10
2017-07-08T01:34:03.009Z,23.10
2017-07-08T01:36:31.473Z,26.33
2017-07-08T01:39:00.670Z,27.63
2017-07-08T01:41:29.169Z,27.37
2017-07-08T01:43:57.779Z,26.27
2017-07-08T01:46:26.299Z,27.93
2017-07-08T01:48:54.852Z,28.23
2017-07-08T01:51:23.821Z,28.63
2017-07-08T01:53:52.359Z,28.07
2017-07-08T01:56:20.933Z,27.27
2017-07-08T01:58:49.424Z,30.43
2017-07-08T02:01:17.907Z,30.87
2017-07-08T02:03:46.479Z,29.13
2017-07-08T02:06:14.992Z,28.53
2017-07-08T02:08:43.489Z,32.20
2017-07-08T02:11:12.108Z,33.27
2017-07-08T02:13:40.604Z,33.73
2017-07-08T02:16:09.320Z,32.17
2017-07-08T02:18:38.870Z,34.27
2017-07-08T02:21:07.396Z,35.67
2017-07-08T02:23:35.984Z,36.03
2017-07-08T02:26:04.486Z,39.07
2017-07-08T02:28:33.140Z,37.73
2017-07-08T02:31:01.655Z,38.07
2017-07-08T02:33:30.102Z,38.17
2017-07-08T02:35:58.826Z,37.37
2017-07-08T02:38:27.514Z,39.20
2017-07-08T02:40:56.030Z,39.63
2017-07-08T02:43:25.068Z,36.83
2017-07-08T02:45:53.735Z,37.60
2017-07-08T02:48:22.221Z,40.53
2017-07-08T02:50:50.681Z,39.17
2017-07-08T02:53:19.467Z,42.07
2017-07-08T02:55:47.997Z,38.13
2017-07-08T02:58:16.652Z,39.27
2017-07-08T03:00:45.443Z,38.90
2017-07-08T03:03:14.332Z,42.90
2017-07-08T03:05:42.830Z,40.17
2017-07-08T03:08:11.373Z,40.30
2017-07-08T03:10:39.833Z,42.33
2017-07-08T03:13:09.044Z,44.23
2017-07-08T03:15:38.389Z,44.57
2017-07-08T03:18:06.952Z,44.47
2017-07-08T03:20:35.643Z,44.63
2017-07-08T03:23:04.276Z,47.70
2017-07-08T03:25:32.793Z,46.13
2017-07-08T03:28:01.726Z,44.13
2017-07-08T03:30:30.214Z,44.20
2017-07-08T03:32:58.785Z,44.57
2017-07-08T03:35:27.469Z,45.53
2017-07-08T03:37:56.086Z,40.60
2017-07-08T03:40:25.353Z,43.50
2017-07-08T03:42:53.836Z,40.87
2017-07-08T03:45:22.296Z,42.33
2017-07-08T03:47:50.782Z,39.37
2017-07-08T03:50:19.595Z,42.17
2017-07-08T03:52:49.200Z,40.97
2017-07-08T03:55:18.009Z,38.33
2017-07-08T03:57:46.676Z,40.37
2017-07-08T04:00:15.351Z,42.10
2017-07-08T04:02:44.002Z,42.17
2017-07-08T04:05:12.546Z,42.70
2017-07-08T04:07:41.021Z,44.27
2017-07-08T04:10:09.729Z,40.90
2017-07-08T04:12:38.202Z,41.17
2017-07-08T04:15:06.769Z,40.37
2017-07-08T04:17:36.577Z,40.27
2017-07-08T04:20:05.186Z,46.30
2017-07-08T04:22:33.673Z,41.47
2017-07-08T04:25:02.147Z,44.97
2017-07-08T04:27:30.868Z,43.17
2017-07-08T04:29:59.509Z,44.33
2017-07-08T04:32:28.116Z,45.80
2017-07-08T04:34:56.834Z,50.90
2017-07-08T04:37:26.096Z,46.40
2017-07-08T04:39:54.666Z,44.73
2017-07-08T04:42:23.558Z,47.27
2017-07-08T04:44:52.398Z,48.20
2017-07-08T04:47:20.905Z,44.70
2017-07-08T04:49:49.473Z,44.57
2017-07-08T04:52:17.965Z,48.73
2017-07-08T04:54:46.470Z,45.40
2017-07-08T04:57:14.938Z,44.07
2017-07-08T04:59:43.474Z,44.27
2017-07-08T05:02:12.383Z,44.20
2017-07-08T05:04:41.678Z,43.47
2017-07-08T05:07:10.376Z,45.40
2017-07-08T05:09:38.817Z,47.63
2017-07-08T05:12:07.720Z,44.63
2017-07-08T05:14:36.185Z,44.33
2017-07-08T05:17:05.276Z,42.10
2017-07-08T05:19:33.966Z,40.40
2017-07-08T05:22:02.651Z,41.60
2017-07-08T05:24:31.235Z,49.23
2017-07-08T05:26:59.722Z,48.07
2017-07-08T05:29:28.386Z,45.23
2017-07-08T05:31:57.181Z,45.07
2017-07-08T05:34:25.793Z,43.90
2017-07-08T05:36:54.425Z,39.80
2017-07-08T05:39:22.918Z,41.60
2017-07-08T05:41:52.564Z,45.67
2017-07-08T05:44:21.657Z,42.77
2017-07-08T05:46:50.397Z,41.20
2017-07-08T05:49:18.892Z,41.70
2017-07-08T05:51:48.145Z,39.20
2017-07-08T05:54:16.737Z,34.77
2017-07-08T05:56:45.274Z,37.47
2017-07-08T05:59:14.069Z,34.63
2017-07-08T06:01:42.677Z,29.93
2017-07-08T06:04:11.574Z,28.77
2017-07-08T06:06:40.102Z,30.10
2017-07-08T06:09:10.705Z,30.30
2017-07-08T06:11:39.271Z,26.73
2017-07-08T06:14:07.985Z,25.43
2017-07-08T06:16:36.634Z,25.57
2017-07-08T06:19:05.085Z,28.73
2017-07-08T06:21:36.273Z,23.70
2017-07-08T06:24:04.948Z,22.83
2017-07-08T06:26:33.401Z,21.17
2017-07-08T06:29:01.950Z,21.97
2017-07-08T06:31:30.448Z,22.43
2017-07-08T06:33:59.277Z,23.00
2017-07-08T06:36:27.862Z,20.33
2017-07-08T06:38:56.560Z,22.33
2017-07-08T06:41:25.180Z,21.40
2017-07-08T06:43:53.659Z,22.00
2017-07-08T06:46:22.147Z,22.10
2017-07-08T06:48:50.644Z,19.03
2017-07-08T06:51:19.232Z,17.40
2017-07-08T06:53:47.765Z,19.30
2017-07-08T06:56:16.252Z,17.93
2017-07-08T06:58:45.113Z,14.20
2017-07-08T07:01:13.809Z,15.30
2017-07-08T07:03:42.280Z,16.37
2017-07-08T07:06:10.733Z,14.20
2017-07-08T07:08:39.494Z,14.03
2017-07-08T07:11:07.985Z,13.43
2017-07-08T07:13:36.590Z,11.77
2017-07-08T07:16:07.265Z,11.90
2017-07-08T07:21:03.968Z,10.07
2017-07-08T07:23:32.437Z,8.90
2017-07-08T11:23:06.434Z,3.23
2017-07-08T11:25:35.258Z,3.63
2017-07-08T11:28:04.080Z,3.50
2017-07-08T11:30:32.565Z,3.77
2017-07-08T11:33:01.079Z,3.40
2017-07-08T11:35:29.605Z,3.35
2017-07-08T11:37:58.190Z,4.27
2017-07-08T11:40:26.959Z,3.60
2017-07-08T11:42:56.519Z,4.10
2017-07-08T11:45:25.297Z,3.20
2017-07-08T11:52:52.861Z,4.07
